Time;durP1;ratioP1;P1;durP2;ratioP2;P2;SDS_P1;SDS_P2;PMS_P1;PMS_P2;Temp;Humidity;BMP_temperature;BMP_pressure;BME280_temperature;BME280_humidity;BME280_pressure;Samples;Min_cycle;Max_cycle;Signal;HPM_P1;HPM_P2
2021/04/03 00:00:52;;;;;;;0.43;0.38;;;9.90;55.90;;;;;;4977460;28;20511;-79
2021/04/03 00:03:19;;;;;;;1.55;0.45;;;9.90;55.90;;;;;;4995554;28;20027;-79
2021/04/03 00:05:45;;;;;;;0.35;0.05;;;9.80;55.90;;;;;;4994906;28;20045;-80
2021/04/03 00:08:12;;;;;;;0.45;0.08;;;9.80;55.90;;;;;;4995967;28;20034;-79
2021/04/03 00:10:48;;;;;;;0.03;0.03;;;9.80;55.90;;;;;;4995048;28;20370;-81
2021/04/03 00:13:15;;;;;;;0.20;0.20;;;9.80;56.00;;;;;;4990880;28;20027;-80
2021/04/03 00:15:41;;;;;;;0.25;0.00;;;9.70;56.10;;;;;;4995798;28;20042;-79
2021/04/03 00:18:07;;;;;;;0.73;0.32;;;9.60;56.30;;;;;;4995634;28;20030;-79
2021/04/03 00:20:34;;;;;;;1.13;0.43;;;9.60;56.40;;;;;;4995631;28;20030;-79
2021/04/03 00:23:00;;;;;;;0.05;0.05;;;9.50;56.60;;;;;;4995604;28;20022;-80
2021/04/03 00:25:26;;;;;;;0.15;0.15;;;9.40;56.70;;;;;;4995467;28;20402;-79
2021/04/03 00:27:52;;;;;;;0.47;0.38;;;9.40;56.90;;;;;;4994823;28;20041;-79
2021/04/03 00:30:19;;;;;;;1.08;0.65;;;9.30;57.00;;;;;;4993301;28;20410;-79
2021/04/03 00:32:49;;;;;;;0.00;0.00;;;9.20;57.20;;;;;;4994471;28;20022;-79
2021/04/03 00:35:17;;;;;;;1.03;0.73;;;9.10;57.40;;;;;;4994277;28;20049;-80
2021/04/03 00:37:43;;;;;;;0.75;0.20;;;9.10;57.50;;;;;;4995444;28;20463;-79
2021/04/03 00:40:12;;;;;;;2.30;0.10;;;9.00;57.60;;;;;;4993158;28;20858;-80
2021/04/03 00:42:38;;;;;;;0.85;0.17;;;9.00;57.70;;;;;;4994050;28;20391;-79
2021/04/03 00:45:05;;;;;;;1.75;0.10;;;9.00;57.80;;;;;;4994137;28;20118;-79
2021/04/03 00:47:32;;;;;;;0.90;0.10;;;8.90;57.90;;;;;;4993774;28;20019;-79
2021/04/03 00:49:58;;;;;;;0.10;0.10;;;8.90;57.90;;;;;;4995028;28;20041;-79
2021/04/03 00:52:24;;;;;;;1.13;0.43;;;8.90;57.90;;;;;;4995172;28;20364;-79
2021/04/03 00:54:50;;;;;;;1.75;0.08;;;8.90;57.90;;;;;;4976911;28;20037;-79
2021/04/03 00:57:16;;;;;;;0.40;0.30;;;8.80;58.10;;;;;;4993784;28;20030;-79
2021/04/03 00:59:42;;;;;;;0.60;0.55;;;8.70;58.40;;;;;;4994544;28;20023;-80
2021/04/03 01:02:08;;;;;;;2.35;0.28;;;8.60;58.40;;;;;;4993231;28;20053;-79
2021/04/03 01:04:35;;;;;;;0.28;0.20;;;8.60;58.50;;;;;;4994772;28;20037;-79
2021/04/03 01:07:01;;;;;;;0.75;0.52;;;8.50;58.70;;;;;;4993934;28;20046;-79
2021/04/03 01:09:27;;;;;;;0.22;0.13;;;8.50;58.90;;;;;;4993426;28;20033;-79
2021/04/03 01:12:03;;;;;;;0.00;0.00;;;8.40;58.90;;;;;;4993747;28;20038;-80
2021/04/03 01:14:39;;;;;;;1.17;0.52;;;8.40;58.90;;;;;;4993070;28;20029;-80
2021/04/03 01:17:36;;;;;;;0.75;0.43;;;8.40;59.20;;;;;;4992993;28;20026;-79
2021/04/03 01:20:30;;;;;;;1.15;0.10;;;8.30;59.10;;;;;;4925555;29;20035;-79
2021/04/03 01:23:15;;;;;;;0.15;0.15;;;8.20;59.20;;;;;;4937602;29;20039;-79
2021/04/03 01:26:07;;;;;;;0.40;0.20;;;8.20;59.40;;;;;;4938836;28;20054;-79
2021/04/03 01:28:45;;;;;;;0.85;0.38;;;8.20;59.50;;;;;;4937232;28;20484;-79
2021/04/03 01:31:12;;;;;;;0.08;0.08;;;8.10;59.50;;;;;;4936123;28;20042;-80
2021/04/03 01:33:42;;;;;;;0.30;0.20;;;8.10;59.60;;;;;;4934400;29;20497;-79
2021/04/03 01:36:35;;;;;;;0.00;0.00;;;8.10;59.70;;;;;;4934272;29;20042;-79
2021/04/03 01:39:07;;;;;;;0.22;0.22;;;8.00;59.80;;;;;;4934919;29;20043;-79
2021/04/03 01:41:33;;;;;;;;;;;7.90;59.90;;;;;;4922119;29;20408;-79
2021/04/03 01:43:59;;;;;;;1.02;0.52;;;7.90;59.90;;;;;;4953003;28;19925;-79
2021/04/03 01:46:27;;;;;;;0.15;0.15;;;7.90;59.90;;;;;;4936798;28;20550;-80
2021/04/03 01:48:54;;;;;;;0.05;0.05;;;7.90;59.80;;;;;;4918772;29;20502;-79
2021/04/03 01:51:20;;;;;;;2.72;0.85;;;7.90;59.90;;;;;;4935570;29;20042;-79
2021/04/03 01:53:46;;;;;;;0.00;0.00;;;7.80;60.10;;;;;;4937109;29;20027;-79
2021/04/03 01:56:13;;;;;;;0.25;0.15;;;7.80;60.10;;;;;;4948409;28;20615;-79
2021/04/03 01:58:39;;;;;;;0.25;0.05;;;7.80;60.20;;;;;;4992510;28;20026;-79
2021/04/03 02:01:05;;;;;;;0.32;0.10;;;7.80;60.30;;;;;;4975359;28;20494;-79
2021/04/03 02:03:32;;;;;;;0.25;0.22;;;7.80;60.20;;;;;;4986080;28;20046;-79
2021/04/03 02:06:00;;;;;;;0.55;0.10;;;7.80;60.20;;;;;;4978831;28;20043;-79
2021/04/03 02:08:27;;;;;;;0.57;0.57;;;7.80;60.30;;;;;;4986217;28;20031;-80
2021/04/03 02:10:53;;;;;;;0.20;0.10;;;7.70;60.30;;;;;;4972216;28;20030;-79
2021/04/03 02:13:19;;;;;;;0.50;0.32;;;7.70;60.40;;;;;;4988723;28;20042;-79
2021/04/03 02:15:46;;;;;;;0.00;0.00;;;7.70;60.30;;;;;;4971853;28;20038;-79
2021/04/03 02:18:12;;;;;;;0.55;0.40;;;7.70;60.30;;;;;;4970795;28;20030;-79
2021/04/03 02:20:39;;;;;;;0.10;0.00;;;7.70;60.30;;;;;;4970692;28;20026;-79
2021/04/03 02:23:05;;;;;;;0.75;0.55;;;7.60;60.30;;;;;;4991036;28;20025;-79
2021/04/03 02:25:31;;;;;;;0.15;0.08;;;7.60;60.50;;;;;;4991604;28;20046;-82
2021/04/03 02:27:57;;;;;;;1.83;1.08;;;7.60;60.40;;;;;;4994289;28;20042;-82
2021/04/03 02:30:23;;;;;;;1.20;0.32;;;7.60;60.30;;;;;;4991351;28;20053;-79
2021/04/03 02:32:54;;;;;;;1.40;0.75;;;7.60;60.40;;;;;;4991777;28;20022;-79
2021/04/03 02:35:22;;;;;;;0.30;0.10;;;7.60;60.40;;;;;;4990319;28;20033;-79
2021/04/03 02:37:53;;;;;;;0.25;0.13;;;7.50;60.50;;;;;;4995993;28;20033;-79
2021/04/03 02:40:21;;;;;;;1.58;0.60;;;7.50;60.60;;;;;;4997611;28;20049;-79
2021/04/03 02:43:05;;;;;;;1.95;0.93;;;7.50;60.80;;;;;;4995016;28;20417;-79
2021/04/03 02:45:34;;;;;;;14.75;0.57;;;7.50;60.80;;;;;;4995415;28;20042;-79
2021/04/03 02:48:02;;;;;;;0.00;0.00;;;7.40;60.90;;;;;;4996386;28;20022;-79
2021/04/03 02:50:31;;;;;;;1.00;0.60;;;7.40;61.00;;;;;;4996086;28;20030;-79
2021/04/03 02:52:57;;;;;;;0.05;0.05;;;7.40;61.10;;;;;;4996173;28;20030;-80
2021/04/03 02:55:26;;;;;;;0.15;0.10;;;7.40;61.10;;;;;;4995770;28;20426;-79
2021/04/03 02:57:53;;;;;;;0.30;0.22;;;7.40;61.10;;;;;;4979382;28;20654;-80
2021/04/03 03:00:19;;;;;;;1.42;1.02;;;7.40;61.30;;;;;;4995457;28;20045;-79
2021/04/03 03:02:46;;;;;;;0.20;0.10;;;7.30;61.50;;;;;;4995950;28;20034;-79
2021/04/03 03:05:12;;;;;;;0.43;0.08;;;7.30;62.50;;;;;;4995858;28;20030;-79
2021/04/03 03:07:43;;;;;;;2.00;0.70;;;7.20;61.60;;;;;;4996231;28;20038;-80
2021/04/03 03:10:11;;;;;;;0.30;0.25;;;7.20;61.70;;;;;;4994528;28;20034;-80
2021/04/03 03:12:37;;;;;;;0.13;0.10;;;7.20;61.90;;;;;;4979935;28;20038;-80
2021/04/03 03:15:04;;;;;;;0.43;0.00;;;7.10;62.10;;;;;;4976102;28;20483;-79
2021/04/03 03:17:30;;;;;;;0.00;0.00;;;7.10;62.20;;;;;;4988560;28;20038;-79
2021/04/03 03:19:56;;;;;;;0.25;0.25;;;7.10;62.20;;;;;;4996673;28;20026;-79
2021/04/03 03:22:22;;;;;;;0.65;0.43;;;7.10;62.30;;;;;;4995513;28;20486;-79
2021/04/03 03:24:48;;;;;;;0.52;0.17;;;7.00;62.30;;;;;;4994307;28;20487;-79
2021/04/03 03:27:15;;;;;;;0.40;0.20;;;7.00;62.40;;;;;;4996612;28;20047;-79
2021/04/03 03:29:41;;;;;;;0.00;0.00;;;7.00;62.50;;;;;;4976396;28;20031;-79
2021/04/03 03:32:07;;;;;;;0.38;0.10;;;7.00;62.60;;;;;;4982879;28;20050;-79
2021/04/03 03:34:33;;;;;;;3.10;1.08;;;6.90;62.60;;;;;;4994711;28;20040;-79
2021/04/03 03:36:59;;;;;;;0.35;0.15;;;7.00;62.70;;;;;;4994686;28;20538;-79
2021/04/03 03:39:26;;;;;;;0.82;0.25;;;7.00;62.80;;;;;;4994844;28;20038;-80
2021/04/03 03:41:57;;;;;;;0.55;0.47;;;7.00;62.80;;;;;;4995518;28;20038;-79
2021/04/03 03:44:23;;;;;;;;;;;7.00;62.80;;;;;;4995405;28;20480;-79
2021/04/03 03:46:49;;;;;;;0.30;0.15;;;7.00;62.90;;;;;;4994734;28;19921;-79
2021/04/03 03:49:15;;;;;;;0.00;0.00;;;7.00;63.10;;;;;;4995582;28;20453;-80
2021/04/03 03:51:41;;;;;;;0.65;0.30;;;7.00;63.80;;;;;;4996091;28;20037;-79
2021/04/03 03:54:07;;;;;;;0.00;0.00;;;7.00;63.00;;;;;;4995924;28;20498;-79
2021/04/03 03:56:34;;;;;;;1.60;0.57;;;7.00;63.20;;;;;;4996264;28;20037;-79
2021/04/03 03:59:00;;;;;;;0.10;0.10;;;7.00;63.20;;;;;;4995019;28;20030;-79
2021/04/03 04:01:26;;;;;;;0.63;0.30;;;7.00;63.20;;;;;;4994288;28;20051;-80
2021/04/03 04:03:53;;;;;;;5.07;0.85;;;7.00;63.50;;;;;;4994190;28;20049;-79
2021/04/03 04:06:19;;;;;;;0.10;0.10;;;7.00;63.50;;;;;;4995910;28;20042;-79
2021/04/03 04:08:45;;;;;;;0.00;0.00;;;7.00;63.40;;;;;;4978367;28;20034;-79
2021/04/03 04:11:13;;;;;;;1.55;0.45;;;7.10;63.40;;;;;;4995915;28;20387;-79
2021/04/03 04:13:39;;;;;;;0.70;0.25;;;7.10;63.30;;;;;;4995903;28;20463;-79
2021/04/03 04:16:05;;;;;;;0.88;0.40;;;7.10;63.30;;;;;;4994875;28;20042;-79
2021/04/03 04:18:31;;;;;;;0.47;0.32;;;7.10;63.20;;;;;;4975231;28;20054;-79
2021/04/03 04:20:58;;;;;;;0.40;0.40;;;7.10;63.30;;;;;;4989910;28;20030;-79
2021/04/03 04:23:24;;;;;;;0.00;0.00;;;7.10;63.20;;;;;;4995141;28;20391;-79
2021/04/03 04:25:51;;;;;;;0.10;0.10;;;7.10;63.10;;;;;;4994389;28;20041;-80
2021/04/03 04:28:17;;;;;;;0.08;0.08;;;7.20;63.00;;;;;;4994957;28;20053;-80
2021/04/03 04:30:43;;;;;;;1.65;0.30;;;7.20;63.00;;;;;;4993473;28;20022;-79
2021/04/03 04:33:09;;;;;;;2.55;0.55;;;7.20;63.00;;;;;;4995444;28;20026;-79
2021/04/03 04:35:35;;;;;;;0.43;0.20;;;7.20;62.90;;;;;;4995331;28;20022;-79
2021/04/03 04:38:01;;;;;;;0.73;0.50;;;7.20;62.90;;;;;;4995128;28;20034;-79
2021/04/03 04:40:28;;;;;;;0.65;0.40;;;7.20;62.80;;;;;;4994125;28;20040;-79
2021/04/03 04:42:54;;;;;;;3.58;0.63;;;7.20;62.80;;;;;;4994268;28;20034;-79
2021/04/03 04:45:20;;;;;;;0.13;0.05;;;7.20;62.60;;;;;;4994542;28;20423;-79
2021/04/03 04:47:46;;;;;;;0.25;0.20;;;7.20;62.60;;;;;;4995111;28;20047;-79
2021/04/03 04:50:12;;;;;;;0.30;0.13;;;7.20;62.60;;;;;;4993844;28;20045;-79
2021/04/03 04:52:39;;;;;;;0.05;0.05;;;7.20;62.60;;;;;;4994891;28;20041;-80
2021/04/03 04:55:06;;;;;;;1.08;0.50;;;7.20;62.50;;;;;;4994336;28;20379;-80
2021/04/03 04:57:32;;;;;;;2.28;0.43;;;7.20;62.40;;;;;;4978992;28;20053;-80
2021/04/03 04:59:58;;;;;;;0.00;0.00;;;7.20;62.50;;;;;;4994847;28;20049;-79
2021/04/03 05:02:24;;;;;;;1.30;0.45;;;7.10;62.40;;;;;;4994640;28;20041;-80
2021/04/03 05:04:51;;;;;;;0.00;0.00;;;7.10;62.50;;;;;;4993679;28;20173;-80
2021/04/03 05:07:17;;;;;;;0.32;0.08;;;7.10;62.50;;;;;;4994107;28;20480;-80
2021/04/03 05:09:43;;;;;;;0.57;0.20;;;7.00;62.60;;;;;;4977090;28;20041;-79
2021/04/03 05:12:09;;;;;;;0.13;0.00;;;7.00;62.70;;;;;;4993544;28;20475;-80
2021/04/03 05:14:36;;;;;;;0.90;0.35;;;7.00;62.80;;;;;;4994575;28;20034;-79
2021/04/03 05:17:02;;;;;;;0.08;0.08;;;6.90;62.80;;;;;;4994333;28;20045;-80
2021/04/03 05:19:28;;;;;;;1.17;0.40;;;6.90;62.80;;;;;;4993312;28;20038;-80
2021/04/03 05:21:54;;;;;;;0.20;0.00;;;6.90;62.70;;;;;;4993448;28;20034;-80
2021/04/03 05:24:20;;;;;;;0.00;0.00;;;6.90;62.60;;;;;;4994491;28;20045;-79
2021/04/03 05:26:46;;;;;;;0.47;0.00;;;6.90;62.60;;;;;;4994398;28;20038;-79
2021/04/03 05:29:12;;;;;;;0.25;0.08;;;6.90;62.80;;;;;;4994495;28;20506;-80
2021/04/03 05:31:38;;;;;;;0.00;0.00;;;6.90;62.90;;;;;;4993184;28;20036;-81
2021/04/03 05:34:04;;;;;;;0.17;0.10;;;6.80;63.00;;;;;;4993905;28;20041;-79
2021/04/03 05:36:30;;;;;;;0.00;0.00;;;6.80;63.00;;;;;;4992859;28;20042;-79
2021/04/03 05:38:57;;;;;;;0.00;0.00;;;6.80;63.00;;;;;;4994256;28;20034;-79
2021/04/03 05:41:23;;;;;;;1.13;0.08;;;6.80;63.10;;;;;;4993096;28;20479;-79
2021/04/03 05:43:52;;;;;;;0.00;0.00;;;6.80;63.10;;;;;;4993244;28;20392;-79
2021/04/03 05:46:19;;;;;;;0.00;0.00;;;6.80;63.10;;;;;;4993382;28;20042;-79
2021/04/03 05:48:45;;;;;;;0.73;0.13;;;6.80;63.30;;;;;;4992150;28;20037;-81
2021/04/03 05:51:13;;;;;;;1.15;0.17;;;6.80;63.30;;;;;;4992716;28;20026;-79
2021/04/03 05:53:39;;;;;;;0.55;0.55;;;6.90;63.30;;;;;;4993981;28;20026;-79
2021/04/03 05:56:05;;;;;;;0.43;0.15;;;6.90;63.10;;;;;;4993384;28;20019;-78
2021/04/03 05:58:32;;;;;;;0.25;0.17;;;6.90;63.10;;;;;;4993093;28;20030;-80
2021/04/03 06:00:58;;;;;;;0.90;0.15;;;6.90;62.90;;;;;;4992992;28;20042;-80
2021/04/03 06:03:24;;;;;;;0.20;0.15;;;7.00;62.90;;;;;;4993965;28;20030;-80
2021/04/03 06:05:51;;;;;;;0.13;0.00;;;7.00;62.70;;;;;;4992498;28;20104;-81
2021/04/03 06:08:18;;;;;;;0.00;0.00;;;7.10;62.60;;;;;;4992762;28;20375;-80
2021/04/03 06:11:09;;;;;;;0.80;0.80;;;7.10;62.50;;;;;;4992942;28;20035;-80
2021/04/03 06:13:35;;;;;;;12.25;0.38;;;7.10;62.50;;;;;;4994082;28;20485;-80
2021/04/03 06:16:01;;;;;;;0.00;0.00;;;7.00;62.40;;;;;;4992446;28;20039;-80
2021/04/03 06:18:27;;;;;;;1.05;0.47;;;7.10;62.50;;;;;;4992770;28;20058;-80
2021/04/03 06:21:06;;;;;;;0.00;0.00;;;7.10;62.50;;;;;;4992651;28;20039;-80
2021/04/03 06:23:32;;;;;;;0.30;0.30;;;7.10;62.50;;;;;;4992678;28;20042;-80
2021/04/03 06:25:58;;;;;;;0.22;0.10;;;7.10;62.50;;;;;;4992465;28;20038;-80
2021/04/03 06:28:26;;;;;;;0.00;0.00;;;7.20;62.20;;;;;;4993762;28;20038;-81
2021/04/03 06:30:56;;;;;;;1.20;0.40;;;7.20;62.10;;;;;;4992818;28;20038;-80
2021/04/03 06:33:22;;;;;;;0.20;0.20;;;7.30;62.20;;;;;;4992169;28;20464;-80
2021/04/03 06:36:13;;;;;;;0.08;0.03;;;7.30;62.10;;;;;;4992529;28;20034;-81
2021/04/03 06:38:40;;;;;;;;;;;7.50;61.90;;;;;;4992840;28;20030;-80
2021/04/03 06:41:15;;;;;;;0.00;0.00;;;7.60;61.40;;;;;;4992607;28;20354;-80
2021/04/03 06:43:41;;;;;;;0.00;0.00;;;7.80;61.10;;;;;;4978627;28;20025;-81
2021/04/03 06:46:23;;;;;;;0.20;0.10;;;7.80;60.90;;;;;;4990872;28;20062;-80
2021/04/03 06:48:53;;;;;;;0.00;0.00;;;7.80;61.00;;;;;;4975211;28;20041;-81
2021/04/03 06:51:23;;;;;;;0.00;0.00;;;7.80;61.00;;;;;;4973084;28;20031;-81
2021/04/03 06:53:49;;;;;;;0.17;0.15;;;7.80;61.10;;;;;;4986477;28;20038;-81
2021/04/03 06:56:26;;;;;;;0.75;0.28;;;7.80;61.10;;;;;;4993401;28;20022;-79
2021/04/03 06:58:59;;;;;;;0.05;0.00;;;7.80;61.00;;;;;;4993406;28;20026;-80
2021/04/03 07:01:26;;;;;;;0.30;0.10;;;7.90;60.90;;;;;;4991549;28;20368;-80
2021/04/03 07:03:56;;;;;;;0.20;0.03;;;8.00;60.70;;;;;;4975092;28;20031;-80
2021/04/03 07:06:25;;;;;;;0.00;0.00;;;8.10;60.60;;;;;;4992276;28;20046;-80
2021/04/03 07:08:51;;;;;;;5.18;0.25;;;8.10;60.40;;;;;;4996697;28;20038;-81
2021/04/03 07:11:18;;;;;;;0.22;0.20;;;8.20;60.30;;;;;;4996874;28;20041;-80
2021/04/03 07:13:44;;;;;;;0.10;0.10;;;8.20;60.20;;;;;;4995855;28;20038;-80
2021/04/03 07:16:10;;;;;;;0.00;0.00;;;8.20;60.10;;;;;;4995419;28;20054;-81
2021/04/03 07:18:38;;;;;;;0.08;0.08;;;8.20;60.10;;;;;;4979587;28;20039;-81
2021/04/03 07:21:06;;;;;;;0.35;0.00;;;8.20;60.00;;;;;;4995693;28;20463;-80
2021/04/03 07:23:32;;;;;;;0.25;0.10;;;8.30;59.90;;;;;;4995545;28;20034;-80
2021/04/03 07:25:59;;;;;;;0.10;0.10;;;8.30;60.50;;;;;;4996660;28;20031;-81
2021/04/03 07:28:44;;;;;;;0.75;0.10;;;8.30;59.80;;;;;;4996706;28;20057;-80
2021/04/03 07:31:10;;;;;;;1.60;0.10;;;8.30;59.70;;;;;;4990772;28;20407;-80
2021/04/03 07:33:52;;;;;;;0.60;0.50;;;8.40;59.60;;;;;;4994955;28;20034;-80
2021/04/03 07:36:37;;;;;;;0.00;0.00;;;8.40;59.50;;;;;;4996692;28;20054;-80
2021/04/03 07:39:04;;;;;;;0.38;0.10;;;8.50;59.40;;;;;;4996501;28;20026;-80
2021/04/03 07:41:38;;;;;;;0.10;0.10;;;8.60;59.20;;;;;;4995343;28;20050;-80
2021/04/03 07:44:13;;;;;;;0.13;0.10;;;8.70;59.00;;;;;;4996329;28;20026;-80
2021/04/03 07:46:44;;;;;;;0.00;0.00;;;8.70;58.90;;;;;;4980495;28;20486;-80
2021/04/03 07:49:11;;;;;;;0.00;0.00;;;8.80;58.70;;;;;;4995580;28;20026;-80
2021/04/03 07:51:41;;;;;;;0.00;0.00;;;8.80;58.60;;;;;;4978782;28;20035;-80
2021/04/03 07:54:11;;;;;;;0.20;0.00;;;8.80;58.40;;;;;;4994914;28;20039;-81
2021/04/03 07:56:46;;;;;;;1.10;0.38;;;8.80;58.40;;;;;;4995988;28;20027;-80
2021/04/03 07:59:12;;;;;;;0.30;0.25;;;8.90;58.20;;;;;;4996173;28;20023;-81
2021/04/03 08:01:38;;;;;;;0.30;0.10;;;9.10;58.10;;;;;;4994085;28;20030;-80
2021/04/03 08:04:06;;;;;;;1.25;0.00;;;9.20;57.80;;;;;;4994101;28;20049;-80
2021/04/03 08:06:39;;;;;;;0.28;0.13;;;9.30;57.50;;;;;;4994591;28;20062;-80
2021/04/03 08:09:13;;;;;;;0.80;0.45;;;9.30;57.30;;;;;;4996017;28;20026;-80
2021/04/03 08:11:43;;;;;;;0.47;0.13;;;9.40;57.90;;;;;;4995878;28;20022;-80
2021/04/03 08:14:16;;;;;;;0.57;0.57;;;9.50;57.20;;;;;;4994682;28;20034;-80
2021/04/03 08:16:43;;;;;;;4.40;0.10;;;9.60;56.90;;;;;;4980743;28;20057;-80
2021/04/03 08:19:09;;;;;;;0.10;0.00;;;9.70;56.80;;;;;;4992658;28;20582;-80
2021/04/03 08:21:47;;;;;;;1.92;0.28;;;9.80;56.50;;;;;;4995692;28;20387;-80
2021/04/03 08:24:14;;;;;;;0.20;0.10;;;9.90;56.10;;;;;;4994280;28;20036;-80
2021/04/03 08:26:40;;;;;;;5.28;0.65;;;9.90;56.00;;;;;;4995519;28;20042;-80
2021/04/03 08:29:07;;;;;;;0.70;0.57;;;9.80;55.90;;;;;;4995315;28;20041;-80
2021/04/03 08:31:34;;;;;;;0.13;0.13;;;9.80;55.90;;;;;;4977940;28;20074;-80
2021/04/03 08:34:04;;;;;;;0.00;0.00;;;9.80;55.90;;;;;;4977288;28;20066;-80
2021/04/03 08:36:34;;;;;;;0.00;0.00;;;9.80;55.90;;;;;;4995411;28;20030;-80
2021/04/03 08:39:02;;;;;;;0.00;0.00;;;9.90;55.80;;;;;;4994168;28;20038;-78
2021/04/03 08:41:28;;;;;;;0.30;0.10;;;10.00;55.60;;;;;;4995314;28;20029;-80
2021/04/03 08:43:55;;;;;;;1.38;0.63;;;10.10;55.50;;;;;;4995039;28;20026;-81
2021/04/03 08:46:22;;;;;;;0.82;0.30;;;10.10;55.30;;;;;;4977498;28;20068;-80
2021/04/03 08:48:50;;;;;;;1.55;0.30;;;10.10;55.20;;;;;;4992276;28;20038;-81
2021/04/03 08:51:16;;;;;;;0.55;0.13;;;10.10;55.10;;;;;;4994177;28;20034;-81
2021/04/03 08:53:43;;;;;;;0.00;0.00;;;10.30;55.00;;;;;;4994116;28;20031;-81
2021/04/03 08:56:11;;;;;;;0.25;0.20;;;10.60;54.70;;;;;;4994954;28;20037;-80
2021/04/03 08:58:37;;;;;;;0.08;0.00;;;10.90;54.30;;;;;;4978176;28;20038;-81
2021/04/03 09:01:04;;;;;;;0.00;0.00;;;11.20;53.90;;;;;;4993821;28;20043;-81
2021/04/03 09:03:31;;;;;;;5.38;0.22;;;11.30;53.30;;;;;;4993655;28;20506;-81
2021/04/03 09:05:57;;;;;;;0.03;0.00;;;11.40;53.10;;;;;;4993565;28;20026;-81
2021/04/03 09:08:24;;;;;;;0.35;0.10;;;11.50;53.00;;;;;;4993614;28;20034;-81
2021/04/03 09:10:54;;;;;;;0.90;0.38;;;11.70;52.60;;;;;;4993669;28;20396;-81
2021/04/03 09:13:20;;;;;;;0.10;0.10;;;11.80;52.30;;;;;;4993046;28;20373;-81
2021/04/03 09:15:47;;;;;;;0.00;0.00;;;11.80;51.90;;;;;;4992367;28;20034;-81
2021/04/03 09:18:13;;;;;;;0.00;0.00;;;11.90;51.70;;;;;;4993376;28;20118;-81
2021/04/03 09:20:49;;;;;;;3.33;0.35;;;11.90;51.50;;;;;;4994471;28;20034;-81
2021/04/03 09:23:16;;;;;;;0.35;0.03;;;12.10;51.50;;;;;;4977041;28;20042;-81
2021/04/03 09:25:44;;;;;;;3.50;0.47;;;12.20;51.10;;;;;;4993313;28;20041;-81
2021/04/03 09:28:11;;;;;;;0.10;0.00;;;12.20;50.80;;;;;;4993221;28;20061;-81
2021/04/03 09:30:43;;;;;;;0.93;0.22;;;12.50;50.70;;;;;;4992822;28;20030;-81
2021/04/03 09:33:21;;;;;;;0.43;0.35;;;12.50;50.30;;;;;;4994277;28;20387;-81
2021/04/03 09:35:47;;;;;;;0.70;0.00;;;12.70;50.30;;;;;;4994780;28;20419;-81
2021/04/03 09:38:14;;;;;;;0.60;0.28;;;12.80;49.90;;;;;;4994123;28;20027;-81
2021/04/03 09:40:44;;;;;;;1.08;0.20;;;12.80;49.60;;;;;;4994590;28;20372;-82
2021/04/03 09:43:11;;;;;;;0.47;0.10;;;12.80;49.40;;;;;;4991921;28;20495;-81
2021/04/03 09:45:38;;;;;;;1.17;0.63;;;12.70;49.20;;;;;;4992258;28;20049;-81
2021/04/03 09:48:05;;;;;;;0.10;0.10;;;12.70;49.10;;;;;;4994133;28;20054;-81
2021/04/03 09:50:31;;;;;;;0.30;0.17;;;12.70;49.20;;;;;;4993989;28;20034;-81
2021/04/03 09:52:58;;;;;;;4.97;0.55;;;12.90;49.20;;;;;;4994567;28;20034;-81
2021/04/03 09:55:24;;;;;;;0.15;0.00;;;13.00;48.90;;;;;;4992877;28;20372;-81
2021/04/03 09:57:50;;;;;;;0.40;0.17;;;13.00;48.70;;;;;;4991687;28;20034;-81
2021/04/03 10:00:17;;;;;;;1.63;0.45;;;13.20;48.70;;;;;;4993550;28;20391;-81
2021/04/03 10:02:43;;;;;;;0.77;0.35;;;13.30;48.30;;;;;;4994009;28;20034;-82
2021/04/03 10:05:12;;;;;;;0.98;0.45;;;13.40;48.10;;;;;;4992985;28;20038;-81
2021/04/03 10:07:38;;;;;;;2.03;0.03;;;13.40;47.90;;;;;;4978866;28;20029;-81
2021/04/03 10:10:05;;;;;;;0.15;0.00;;;13.40;47.70;;;;;;4975912;28;20534;-81
2021/04/03 10:12:31;;;;;;;0.47;0.17;;;13.40;47.80;;;;;;4993448;28;20031;-81
2021/04/03 10:14:57;;;;;;;0.30;0.28;;;13.50;47.70;;;;;;4992659;28;20391;-81
2021/04/03 10:17:23;;;;;;;0.43;0.30;;;13.70;47.60;;;;;;4993611;28;20034;-81
2021/04/03 10:19:49;;;;;;;0.00;0.00;;;13.70;47.30;;;;;;4992916;28;20483;-81
2021/04/03 10:22:15;;;;;;;0.05;0.00;;;13.80;47.30;;;;;;4991605;28;20037;-83
2021/04/03 10:24:41;;;;;;;0.28;0.20;;;13.70;47.10;;;;;;4993237;28;20460;-81
2021/04/03 10:27:08;;;;;;;0.73;0.10;;;13.80;47.10;;;;;;4992491;28;20034;-81
2021/04/03 10:29:34;;;;;;;1.20;0.40;;;13.80;47.00;;;;;;4993580;28;20033;-81
2021/04/03 10:32:00;;;;;;;1.60;0.80;;;13.90;47.00;;;;;;4992216;28;20497;-81
2021/04/03 10:34:26;;;;;;;2.45;0.55;;;13.90;46.90;;;;;;4993781;28;20041;-81
2021/04/03 10:36:52;;;;;;;2.92;0.63;;;13.90;46.70;;;;;;4992829;28;20037;-81
2021/04/03 10:39:18;;;;;;;0.75;0.22;;;13.80;46.40;;;;;;4993284;28;20026;-81
2021/04/03 10:41:44;;;;;;;0.68;0.25;;;13.80;46.40;;;;;;4992727;28;20497;-81
2021/04/03 10:44:10;;;;;;;0.20;0.10;;;13.70;46.40;;;;;;4996019;28;20030;-81
2021/04/03 10:46:36;;;;;;;0.98;0.00;;;13.70;46.40;;;;;;4981513;28;20494;-81
2021/04/03 10:49:02;;;;;;;0.75;0.20;;;13.80;46.40;;;;;;4995537;28;20038;-81
2021/04/03 10:51:28;;;;;;;0.38;0.20;;;13.80;46.20;;;;;;4997290;28;20039;-81
2021/04/03 10:53:55;;;;;;;1.88;0.73;;;13.80;45.90;;;;;;4995804;28;20050;-82
2021/04/03 10:56:21;;;;;;;1.10;0.47;;;13.90;46.00;;;;;;4996273;28;20023;-81
2021/04/03 10:58:47;;;;;;;0.00;0.00;;;13.90;46.00;;;;;;4997293;28;20029;-81
2021/04/03 11:01:13;;;;;;;0.00;0.00;;;14.10;45.80;;;;;;4996045;28;20427;-81
2021/04/03 11:03:39;;;;;;;0.52;0.00;;;14.20;45.60;;;;;;4996070;28;20031;-81
2021/04/03 11:06:05;;;;;;;1.27;0.22;;;14.30;45.40;;;;;;4997174;28;20524;-81
2021/04/03 11:08:31;;;;;;;0.17;0.08;;;14.30;45.30;;;;;;4996751;28;20451;-81
2021/04/03 11:10:58;;;;;;;0.00;0.00;;;14.40;45.30;;;;;;4995890;28;20391;-81
2021/04/03 11:13:24;;;;;;;1.65;0.52;;;14.50;45.30;;;;;;4995963;28;20178;-81
2021/04/03 11:15:50;;;;;;;0.40;0.17;;;14.60;45.10;;;;;;4995859;28;20026;-81
2021/04/03 11:18:16;;;;;;;1.95;0.50;;;14.60;45.10;;;;;;4995797;28;20034;-81
2021/04/03 11:20:42;;;;;;;0.10;0.10;;;14.70;45.10;;;;;;4995703;28;20041;-82
2021/04/03 11:23:08;;;;;;;0.77;0.20;;;14.70;45.10;;;;;;4995396;28;20038;-81
2021/04/03 11:25:34;;;;;;;0.00;0.00;;;14.80;44.90;;;;;;4995778;28;20030;-81
2021/04/03 11:28:01;;;;;;;0.08;0.08;;;14.80;44.70;;;;;;4995822;28;20042;-81
2021/04/03 11:30:28;;;;;;;0.10;0.00;;;14.80;44.40;;;;;;4994926;28;20046;-81
2021/04/03 11:32:54;;;;;;;0.45;0.17;;;14.60;44.30;;;;;;4996873;28;20368;-81
2021/04/03 11:35:21;;;;;;;1.73;0.40;;;14.60;44.40;;;;;;4995431;28;20030;-81
2021/04/03 11:37:47;;;;;;;0.00;0.00;;;14.60;44.50;;;;;;4995361;28;20038;-81
2021/04/03 11:40:14;;;;;;;0.00;0.00;;;14.80;44.40;;;;;;4995548;28;20395;-81
2021/04/03 11:42:40;;;;;;;2.13;0.20;;;14.80;44.10;;;;;;4997659;28;20023;-81
2021/04/03 11:45:08;;;;;;;0.40;0.20;;;14.70;44.20;;;;;;4996048;28;20053;-81
2021/04/03 11:47:37;;;;;;;0.30;0.00;;;14.80;44.20;;;;;;4995176;28;20054;-80
2021/04/03 11:50:04;;;;;;;0.00;0.00;;;14.90;44.20;;;;;;4996123;28;20034;-81
2021/04/03 11:52:31;;;;;;;0.30;0.20;;;14.90;44.80;;;;;;4994732;28;20033;-81
2021/04/03 11:54:58;;;;;;;0.20;0.15;;;14.90;43.90;;;;;;4993087;28;20030;-81
2021/04/03 11:57:24;;;;;;;0.47;0.15;;;14.70;43.80;;;;;;4994976;28;20045;-81
2021/04/03 11:59:50;;;;;;;0.60;0.20;;;14.80;43.90;;;;;;4995065;28;20042;-81
2021/04/03 12:02:16;;;;;;;6.40;0.70;;;14.70;43.80;;;;;;4994431;28;20023;-81
2021/04/03 12:04:42;;;;;;;0.00;0.00;;;14.80;43.80;;;;;;4995008;28;20022;-81
2021/04/03 12:07:08;;;;;;;2.40;0.13;;;14.90;43.70;;;;;;4994624;28;20026;-81
2021/04/03 12:09:34;;;;;;;2.38;0.10;;;14.90;43.50;;;;;;4996045;28;20040;-81
2021/04/03 12:12:00;;;;;;;0.28;0.08;;;15.00;43.60;;;;;;4994712;28;20030;-81
2021/04/03 12:14:26;;;;;;;1.90;0.65;;;15.10;43.50;;;;;;4995900;28;20026;-81
2021/04/03 12:16:53;;;;;;;0.77;0.05;;;15.00;43.30;;;;;;4994212;28;20030;-81
2021/04/03 12:19:19;;;;;;;0.43;0.10;;;15.20;43.40;;;;;;4995264;28;20029;-81
2021/04/03 12:21:45;;;;;;;5.10;0.55;;;15.20;43.30;;;;;;4995249;28;20509;-81
2021/04/03 12:24:11;;;;;;;3.65;0.52;;;15.20;43.40;;;;;;4994597;28;20039;-81
2021/04/03 12:26:37;;;;;;;0.77;0.43;;;15.30;43.30;;;;;;4994489;28;20034;-81
2021/04/03 12:29:03;;;;;;;0.43;0.10;;;15.50;43.20;;;;;;4995586;28;20034;-81
2021/04/03 12:31:29;;;;;;;0.10;0.10;;;15.40;42.90;;;;;;4995268;28;20041;-83
2021/04/03 12:33:55;;;;;;;4.18;0.50;;;15.30;43.10;;;;;;4977452;28;20364;-81
2021/04/03 12:36:22;;;;;;;1.42;0.82;;;15.30;43.10;;;;;;4995190;28;20034;-81
2021/04/03 12:38:48;;;;;;;1.00;0.08;;;15.20;43.00;;;;;;4994224;28;20022;-82
2021/04/03 12:41:14;;;;;;;0.08;0.03;;;15.20;43.00;;;;;;4994275;28;20038;-81
2021/04/03 12:43:40;;;;;;;3.15;0.20;;;15.10;43.10;;;;;;4995378;28;20030;-82
2021/04/03 12:46:07;;;;;;;0.17;0.00;;;14.90;43.20;;;;;;4993987;28;20043;-80
2021/04/03 12:48:33;;;;;;;0.05;0.00;;;15.00;43.20;;;;;;4993847;28;20038;-81
2021/04/03 12:50:59;;;;;;;0.10;0.00;;;15.00;43.10;;;;;;4993527;28;20018;-81
2021/04/03 12:53:26;;;;;;;0.00;0.00;;;15.00;42.90;;;;;;4995348;28;20038;-81
2021/04/03 12:55:52;;;;;;;4.90;0.32;;;15.00;42.80;;;;;;4994034;28;20159;-81
2021/04/03 12:58:18;;;;;;;0.00;0.00;;;14.90;43.00;;;;;;4993366;28;20050;-81